Terminal Aerodrome Forecast
Issued by NWS

Home | Current Version | Previous Version | Text Only | Print | Product List | Glossary Off
Versions: 1 2 3 4 5 6 7 8 9 10 11 12 13

000
FTUS45 KGGW 250522 AAA
TAFOLF
TAF AMD
KOLF 250522Z 2505/2606 VRB04KT P6SM SCT200
     FM250800 VRB06KT P6SM VCSH SCT060 BKN100
     FM252200 35009KT P6SM SCT200
     FM260200 34004KT 5SM -SHRA SCT060 BKN090=

USA.gov is the U.S. government's official web portal to all federal, state and local government web resources and services.